createdAt,value
2018-12-12T00:02:03.804Z,3.50
2018-12-12T00:04:42.590Z,3.53
2018-12-12T00:07:11.931Z,3.77
2018-12-12T00:09:45.780Z,4.40
2018-12-12T00:12:18.585Z,3.70
2018-12-12T00:14:54.358Z,3.30
2018-12-12T00:17:24.810Z,3.67
2018-12-12T00:20:03.928Z,3.70
2018-12-12T00:22:36.603Z,3.23
2018-12-12T00:25:09.827Z,3.60
2018-12-12T00:27:44.496Z,4.23
2018-12-12T00:30:19.574Z,4.10
2018-12-12T00:32:59.945Z,8.57
2018-12-12T00:35:32.787Z,9.20
2018-12-12T00:38:07.746Z,3.80
2018-12-12T00:40:42.599Z,3.80
2018-12-12T00:43:18.003Z,3.90
2018-12-12T00:45:50.876Z,3.70
2018-12-12T00:48:25.019Z,5.23
2018-12-12T00:51:00.326Z,5.57
2018-12-12T00:53:45.503Z,11.13
2018-12-12T00:56:20.930Z,12.57
2018-12-12T00:59:03.111Z,3.67
2018-12-12T01:01:38.586Z,3.83
2018-12-12T01:04:15.126Z,8.00
2018-12-12T01:06:47.630Z,9.73
2018-12-12T01:09:22.843Z,4.30
2018-12-12T01:12:06.388Z,3.30
2018-12-12T01:14:51.998Z,3.50
2018-12-12T01:17:28.993Z,3.53
2018-12-12T01:20:04.443Z,3.93
2018-12-12T01:22:40.131Z,5.97
2018-12-12T01:25:14.965Z,5.50
2018-12-12T01:27:50.535Z,4.60
2018-12-12T01:30:27.313Z,4.17
2018-12-12T01:32:59.549Z,3.87
2018-12-12T01:35:35.104Z,3.63
2018-12-12T01:38:08.433Z,4.50
2018-12-12T01:40:44.258Z,4.53
2018-12-12T01:43:17.545Z,4.50
2018-12-12T01:45:49.711Z,4.40
2018-12-12T01:48:21.840Z,4.63
2018-12-12T01:50:56.532Z,5.17
2018-12-12T01:53:25.894Z,4.47
2018-12-12T01:56:01.265Z,4.70
2018-12-12T01:58:34.866Z,5.00
2018-12-12T02:01:11.466Z,4.60
2018-12-12T02:03:44.808Z,5.00
2018-12-12T02:06:13.958Z,4.70
2018-12-12T02:08:50.498Z,4.97
2018-12-12T02:14:16.134Z,5.10
2018-12-12T02:16:55.025Z,6.47
2018-12-12T02:19:30.602Z,5.97
2018-12-12T02:22:08.126Z,4.60
2018-12-12T02:24:40.750Z,4.90
2018-12-12T02:27:10.739Z,4.47
2018-12-12T02:29:47.127Z,4.70
2018-12-12T02:32:18.517Z,4.60
2018-12-12T02:34:50.922Z,4.60
2018-12-12T02:37:26.912Z,4.90
2018-12-12T02:39:55.968Z,5.90
2018-12-12T02:42:25.306Z,6.20
2018-12-12T02:44:54.143Z,4.33
2018-12-12T02:53:02.178Z,4.50
2018-12-12T02:55:31.047Z,4.90
2018-12-12T02:57:59.936Z,4.53
2018-12-12T03:00:29.148Z,4.83
2018-12-12T03:03:10.731Z,4.53
2018-12-12T03:05:43.814Z,4.73
2018-12-12T03:08:12.817Z,4.57
2018-12-12T03:10:41.922Z,4.23
2018-12-12T03:13:10.979Z,4.37
2018-12-12T03:15:39.628Z,4.90
2018-12-12T03:18:08.267Z,4.67
2018-12-12T03:20:37.229Z,4.77
2018-12-12T03:23:18.488Z,4.90
2018-12-12T03:25:52.980Z,4.50
2018-12-12T03:28:25.790Z,4.53
2018-12-12T03:30:55.077Z,4.30
2018-12-12T03:33:28.003Z,4.87
2018-12-12T03:35:56.898Z,4.57
2018-12-12T03:38:26.021Z,3.97
2018-12-12T03:44:05.074Z,4.10
2018-12-12T03:46:34.085Z,3.60
2018-12-12T03:49:02.857Z,3.70
2018-12-12T03:51:32.178Z,3.70
2018-12-12T03:54:02.067Z,3.47
2018-12-12T03:56:30.951Z,3.97
2018-12-12T03:58:59.716Z,3.80
2018-12-12T04:01:29.352Z,4.50
2018-12-12T04:04:07.737Z,3.40
2018-12-12T04:06:42.830Z,4.67
2018-12-12T04:09:17.867Z,4.67
2018-12-12T04:11:47.867Z,3.70
2018-12-12T04:14:17.922Z,3.60
2018-12-12T04:16:49.748Z,3.90
2018-12-12T04:19:18.533Z,3.80
2018-12-12T04:22:03.434Z,4.00
2018-12-12T04:24:34.559Z,4.10
2018-12-12T04:27:03.519Z,3.90
2018-12-12T04:29:32.415Z,3.90
2018-12-12T04:32:06.757Z,5.60
2018-12-12T04:34:42.124Z,4.27
2018-12-12T04:37:12.918Z,4.13
2018-12-12T04:39:45.568Z,4.33
2018-12-12T04:42:20.496Z,4.07
2018-12-12T04:47:48.067Z,3.87
2018-12-12T04:50:16.744Z,3.80
2018-12-12T04:52:45.543Z,4.00
2018-12-12T04:55:14.946Z,3.73
2018-12-12T04:57:44.917Z,3.70
2018-12-12T05:00:15.146Z,3.73
2018-12-12T05:02:44.349Z,4.30
2018-12-12T05:05:17.712Z,4.07
2018-12-12T05:07:52.079Z,3.67
2018-12-12T05:10:21.085Z,3.80
2018-12-12T05:12:55.473Z,3.80
2018-12-12T05:18:24.957Z,4.00
2018-12-12T05:20:53.622Z,4.30
2018-12-12T05:23:22.567Z,4.20
2018-12-12T05:25:51.221Z,3.87
2018-12-12T05:28:21.576Z,4.10
2018-12-12T05:30:50.413Z,7.33
2018-12-12T05:33:19.124Z,4.60
2018-12-12T05:35:48.154Z,3.73
2018-12-12T05:38:17.187Z,4.70
2018-12-12T05:40:51.210Z,3.30
2018-12-12T05:43:21.145Z,4.47
2018-12-12T05:46:02.851Z,4.00
2018-12-12T05:48:35.231Z,3.90
2018-12-12T05:51:04.491Z,4.40
2018-12-12T05:53:33.472Z,3.70
2018-12-12T05:56:14.683Z,4.03
2018-12-12T05:58:53.120Z,5.60
2018-12-12T06:01:23.796Z,4.37
2018-12-12T06:03:54.499Z,4.20
2018-12-12T06:06:29.931Z,4.67
2018-12-12T06:09:04.535Z,4.17
2018-12-12T06:11:44.683Z,4.20
2018-12-12T06:14:17.616Z,4.37
2018-12-12T06:16:58.741Z,3.83
2018-12-12T06:19:35.002Z,4.63
2018-12-12T06:22:03.959Z,4.37
2018-12-12T06:24:44.927Z,4.63
2018-12-12T06:27:20.422Z,4.50
2018-12-12T06:29:53.361Z,5.00
2018-12-12T06:32:30.382Z,5.20
2018-12-12T06:35:10.844Z,5.30
2018-12-12T06:37:46.960Z,5.43
2018-12-12T06:40:28.281Z,5.03
2018-12-12T06:42:57.308Z,5.00
2018-12-12T06:45:33.364Z,5.40
2018-12-12T06:48:08.327Z,6.20
2018-12-12T06:50:43.121Z,5.90
2018-12-12T06:53:12.319Z,5.10
2018-12-12T06:55:53.669Z,5.47
2018-12-12T06:58:26.534Z,5.33
2018-12-12T07:03:58.729Z,6.30
2018-12-12T07:06:30.115Z,6.07
2018-12-12T07:08:59.002Z,6.17
2018-12-12T07:14:31.190Z,7.73
2018-12-12T07:17:00.286Z,6.40
2018-12-12T07:19:29.036Z,5.60
2018-12-12T07:21:57.753Z,5.40
2018-12-12T07:24:44.494Z,5.70
2018-12-12T07:27:16.627Z,4.73
2018-12-12T07:29:49.020Z,6.00
2018-12-12T07:32:29.287Z,6.57
2018-12-12T07:35:11.343Z,6.07
2018-12-12T07:37:47.007Z,6.90
2018-12-12T07:40:19.065Z,6.67
2018-12-12T07:42:51.321Z,6.80
2018-12-12T07:45:44.596Z,7.37
2018-12-12T07:48:19.877Z,7.90
2018-12-12T07:50:55.649Z,7.20
2018-12-12T07:53:33.426Z,7.97
2018-12-12T07:56:10.599Z,7.47
2018-12-12T07:58:46.016Z,8.10
2018-12-12T08:01:22.712Z,8.93
2018-12-12T08:04:03.366Z,9.27
2018-12-12T08:06:39.316Z,9.37
2018-12-12T08:09:13.087Z,9.70
2018-12-12T08:11:46.397Z,9.93
2018-12-12T08:14:16.218Z,10.80
2018-12-12T08:16:46.137Z,10.47
2018-12-12T08:19:20.270Z,10.07
2018-12-12T08:21:54.520Z,10.93
2018-12-12T08:24:26.279Z,9.80
2018-12-12T08:27:01.100Z,11.23
2018-12-12T08:29:36.192Z,10.20
2018-12-12T08:32:09.258Z,11.87
2018-12-12T08:34:44.977Z,11.30
2018-12-12T08:37:17.089Z,11.20
2018-12-12T08:39:52.279Z,11.53
2018-12-12T08:42:25.008Z,11.33
2018-12-12T08:45:01.282Z,12.23
2018-12-12T08:47:36.685Z,12.40
2018-12-12T08:50:12.065Z,11.57
2018-12-12T08:52:48.124Z,11.73
2018-12-12T08:55:17.744Z,11.67
2018-12-12T08:57:52.713Z,12.20
2018-12-12T09:00:26.773Z,12.00
2018-12-12T09:03:01.471Z,11.53
2018-12-12T09:05:38.711Z,9.87
2018-12-12T09:08:13.366Z,11.20
2018-12-12T09:10:48.396Z,11.10
2018-12-12T09:13:21.735Z,11.40
2018-12-12T09:15:53.554Z,11.03
2018-12-12T09:18:24.583Z,11.53
2018-12-12T09:21:07.461Z,12.03
2018-12-12T09:23:36.659Z,11.40
2018-12-12T09:26:19.333Z,12.00
2018-12-12T09:28:59.947Z,12.10
2018-12-12T09:31:34.616Z,13.50
2018-12-12T09:34:15.339Z,13.00
2018-12-12T09:36:44.861Z,12.40
2018-12-12T09:39:27.094Z,11.70
2018-12-12T09:42:03.894Z,11.77
2018-12-12T09:44:43.584Z,11.50
2018-12-12T09:47:16.750Z,11.83
2018-12-12T09:49:48.973Z,11.73
2018-12-12T09:52:26.047Z,12.50
2018-12-12T09:55:02.433Z,12.73
2018-12-12T09:57:38.292Z,13.17
2018-12-12T10:00:13.260Z,12.63
2018-12-12T10:02:48.977Z,12.17
2018-12-12T10:05:23.283Z,13.80
2018-12-12T10:07:58.267Z,12.00
2018-12-12T10:10:30.690Z,11.83
2018-12-12T10:13:03.525Z,12.90
2018-12-12T10:15:39.145Z,9.17
2018-12-12T10:18:13.963Z,11.60
2018-12-12T10:20:48.377Z,9.23
2018-12-12T10:23:23.011Z,7.50
2018-12-12T10:26:01.227Z,11.67
2018-12-12T10:28:33.825Z,10.23
2018-12-12T10:31:08.180Z,11.00
2018-12-12T10:33:40.876Z,9.77
2018-12-12T10:36:20.797Z,12.60
2018-12-12T10:38:55.817Z,11.33
2018-12-12T10:41:36.130Z,12.33
2018-12-12T10:44:18.632Z,13.00
2018-12-12T10:46:50.883Z,13.50
2018-12-12T10:49:23.215Z,13.00
2018-12-12T10:52:03.466Z,12.60
2018-12-12T10:54:38.739Z,9.97
2018-12-12T10:57:15.465Z,12.70
2018-12-12T11:00:00.307Z,6.97
2018-12-12T11:02:32.262Z,11.27
2018-12-12T11:05:13.823Z,12.80
2018-12-12T11:07:42.835Z,10.27
2018-12-12T11:10:18.249Z,10.37
2018-12-12T11:12:51.065Z,10.00
2018-12-12T11:15:34.624Z,6.13
2018-12-12T11:18:09.277Z,8.77
2018-12-12T11:20:46.361Z,9.10
2018-12-12T11:23:22.352Z,9.90
2018-12-12T11:26:03.073Z,7.27
2018-12-12T11:28:38.155Z,9.23
2018-12-12T11:31:13.285Z,8.10
2018-12-12T11:33:50.600Z,7.20
2018-12-12T11:36:19.209Z,8.90
2018-12-12T11:38:54.571Z,9.07
2018-12-12T11:41:29.043Z,8.33
2018-12-12T11:44:03.907Z,9.57
2018-12-12T11:46:32.556Z,9.00
2018-12-12T11:49:08.535Z,8.57
2018-12-12T11:54:28.013Z,8.10
2018-12-12T11:57:06.401Z,8.17
2018-12-12T11:59:38.853Z,9.70
2018-12-12T12:05:01.319Z,8.97
2018-12-12T12:07:36.034Z,9.57
2018-12-12T12:10:10.326Z,8.07
2018-12-12T12:12:43.531Z,6.37
2018-12-12T12:15:29.831Z,5.20
2018-12-12T12:18:01.145Z,6.20
2018-12-12T12:20:30.964Z,7.20
2018-12-12T12:23:01.655Z,8.33
2018-12-12T12:25:33.921Z,6.47
2018-12-12T12:28:08.883Z,6.90
2018-12-12T12:30:44.126Z,7.60
2018-12-12T12:33:18.427Z,7.40
2018-12-12T12:35:53.520Z,4.70
2018-12-12T12:38:30.136Z,6.70
2018-12-12T12:41:04.522Z,7.27
2018-12-12T12:43:39.553Z,7.03
2018-12-12T12:46:12.302Z,6.27
2018-12-12T12:48:45.094Z,6.80
2018-12-12T12:51:18.505Z,6.67
2018-12-12T12:53:53.190Z,7.17
2018-12-12T12:56:28.122Z,6.40
2018-12-12T12:58:57.152Z,6.30
2018-12-12T13:01:26.503Z,5.43
2018-12-12T13:03:55.602Z,7.03
2018-12-12T13:06:26.502Z,6.20
2018-12-12T13:12:06.485Z,4.97
2018-12-12T13:14:43.795Z,5.67
2018-12-12T13:17:13.323Z,6.13
2018-12-12T13:22:51.346Z,6.40
2018-12-12T13:25:20.768Z,5.70
2018-12-12T13:27:55.732Z,5.50
2018-12-12T13:30:24.485Z,5.17
2018-12-12T13:32:57.562Z,5.63
2018-12-12T13:35:26.703Z,5.47
2018-12-12T13:38:00.861Z,5.53
2018-12-12T13:43:46.589Z,4.80
2018-12-12T13:46:19.058Z,5.37
2018-12-12T13:48:54.875Z,4.57
2018-12-12T13:51:23.984Z,4.43
2018-12-12T13:53:54.268Z,3.70
2018-12-12T13:56:23.073Z,3.57
2018-12-12T13:58:52.223Z,3.77
2018-12-12T14:01:20.896Z,3.70
2018-12-12T14:03:49.979Z,3.60
2018-12-12T14:06:19.164Z,3.47
2018-12-12T14:08:47.906Z,3.83
2018-12-12T14:11:17.066Z,3.40
2018-12-12T14:13:45.999Z,3.37
2018-12-12T14:16:15.277Z,4.13
2018-12-12T14:18:44.347Z,3.50
2018-12-12T14:21:13.036Z,3.40
2018-12-12T14:23:42.040Z,3.40
2018-12-12T14:26:11.031Z,2.83
2018-12-12T14:28:39.981Z,4.10
2018-12-12T14:31:09.150Z,3.43
2018-12-12T14:33:44.935Z,3.27
2018-12-12T14:36:15.580Z,4.40
2018-12-12T14:38:44.788Z,4.50
2018-12-12T14:41:19.720Z,4.40
2018-12-12T14:46:42.215Z,4.17
2018-12-12T14:49:11.246Z,4.50
2018-12-12T14:51:43.651Z,4.43
2018-12-12T14:54:14.321Z,6.33
2018-12-12T14:56:42.966Z,5.30
2018-12-12T14:59:15.132Z,4.50
2018-12-12T15:01:44.053Z,3.90
2018-12-12T15:04:12.723Z,5.60
2018-12-12T15:06:42.091Z,5.10
2018-12-12T15:09:11.464Z,5.23
2018-12-12T15:11:40.480Z,4.93
2018-12-12T15:14:12.799Z,4.67
2018-12-12T15:16:42.256Z,5.30
2018-12-12T15:19:12.215Z,5.10
2018-12-12T15:21:41.141Z,5.30
2018-12-12T15:24:10.360Z,4.70
2018-12-12T15:26:39.623Z,5.10
2018-12-12T15:29:08.532Z,5.23
2018-12-12T15:31:37.474Z,4.30
2018-12-12T15:34:06.826Z,5.83
2018-12-12T15:36:35.851Z,5.03
2018-12-12T15:39:08.177Z,5.00
2018-12-12T15:41:38.167Z,4.70
2018-12-12T15:44:06.836Z,5.83
2018-12-12T15:46:35.450Z,4.93
2018-12-12T15:49:04.736Z,5.50
2018-12-12T15:51:35.135Z,6.20
2018-12-12T15:54:04.238Z,5.70
2018-12-12T15:56:33.270Z,5.93
2018-12-12T15:59:09.340Z,6.20
2018-12-12T16:01:38.518Z,6.00
2018-12-12T16:04:07.621Z,5.57
2018-12-12T16:06:36.733Z,5.80
2018-12-12T16:09:06.158Z,5.70
2018-12-12T16:11:34.817Z,5.50
2018-12-12T16:14:03.656Z,5.97
2018-12-12T16:16:32.387Z,6.07
2018-12-12T16:19:01.295Z,5.43
2018-12-12T16:21:30.518Z,6.20
2018-12-12T16:23:59.687Z,5.53
2018-12-12T16:26:28.785Z,5.63
2018-12-12T16:28:58.358Z,5.77
2018-12-12T16:31:28.119Z,5.93
2018-12-12T16:33:57.209Z,5.53
2018-12-12T16:36:27.473Z,5.90
2018-12-12T16:38:57.605Z,6.63
2018-12-12T16:41:26.658Z,5.67
2018-12-12T16:43:55.296Z,6.03
2018-12-12T16:46:26.208Z,5.53
2018-12-12T16:48:55.003Z,5.93
2018-12-12T16:51:23.838Z,6.23
2018-12-12T16:53:52.822Z,5.80
2018-12-12T16:56:21.919Z,7.43
2018-12-12T16:58:51.030Z,6.77
2018-12-12T17:01:20.073Z,6.50
2018-12-12T17:03:49.310Z,6.30
2018-12-12T17:06:18.561Z,6.33
2018-12-12T17:08:48.460Z,7.77
2018-12-12T17:11:17.710Z,7.17
2018-12-12T17:13:46.734Z,7.03
2018-12-12T17:16:15.787Z,7.10
2018-12-12T17:18:45.678Z,17.17
2018-12-12T17:21:14.851Z,5.77
2018-12-12T17:23:43.998Z,5.83
2018-12-12T17:26:12.986Z,6.47
2018-12-12T17:28:41.981Z,6.00
2018-12-12T17:31:11.872Z,6.30
2018-12-12T17:33:40.497Z,6.57
2018-12-12T17:36:09.402Z,6.53
2018-12-12T17:38:38.392Z,6.57
2018-12-12T17:41:07.149Z,6.50
2018-12-12T17:43:36.051Z,6.27
2018-12-12T17:46:05.105Z,6.63
2018-12-12T17:48:34.910Z,6.10
2018-12-12T17:51:03.761Z,6.13
2018-12-12T17:53:32.559Z,6.17
2018-12-12T17:56:02.047Z,7.10
2018-12-12T17:58:30.881Z,5.63
2018-12-12T18:00:59.668Z,6.40
2018-12-12T18:03:30.663Z,6.03
2018-12-12T18:06:18.556Z,6.00
2018-12-12T18:08:47.575Z,7.03
2018-12-12T18:11:16.411Z,6.33
2018-12-12T18:13:45.384Z,6.57
2018-12-12T18:16:16.579Z,6.07
2018-12-12T18:18:45.652Z,5.30
2018-12-12T18:21:14.750Z,6.77
2018-12-12T18:23:45.856Z,6.00
2018-12-12T18:26:14.889Z,6.03
2018-12-12T18:28:43.605Z,5.43
2018-12-12T18:31:12.774Z,5.83
2018-12-12T18:33:43.801Z,6.57
2018-12-12T18:36:17.092Z,3.90
2018-12-12T18:38:46.807Z,7.07
2018-12-12T18:41:15.818Z,5.37
2018-12-12T18:43:46.563Z,6.33
2018-12-12T18:46:15.507Z,6.60
2018-12-12T18:48:44.132Z,6.73
2018-12-12T18:51:15.273Z,4.80
2018-12-12T18:53:44.614Z,6.60
2018-12-12T18:56:15.648Z,6.40
2018-12-12T18:58:44.653Z,6.63
2018-12-12T19:01:13.660Z,5.47
2018-12-12T19:03:48.544Z,6.10
2018-12-12T19:06:18.219Z,5.70
2018-12-12T19:08:47.409Z,6.27
2018-12-12T19:11:16.347Z,6.47
2018-12-12T19:13:45.229Z,6.93
2018-12-12T19:16:14.350Z,6.47
2018-12-12T19:18:43.398Z,6.10
2018-12-12T19:21:13.959Z,6.53
2018-12-12T19:23:43.286Z,6.13
2018-12-12T19:26:12.570Z,6.60
2018-12-12T19:28:41.650Z,5.10
2018-12-12T19:31:10.599Z,6.30
2018-12-12T19:33:40.161Z,6.10
2018-12-12T19:36:09.016Z,6.73
2018-12-12T19:38:38.482Z,6.70
2018-12-12T19:41:07.546Z,6.23
2018-12-12T19:43:37.237Z,7.00
2018-12-12T19:46:06.470Z,6.60
2018-12-12T19:48:35.589Z,6.07
2018-12-12T19:51:04.657Z,6.90
2018-12-12T19:53:33.455Z,6.80
2018-12-12T19:56:03.679Z,6.17
2018-12-12T19:58:33.843Z,6.73
2018-12-12T20:01:02.583Z,6.17
2018-12-12T20:03:32.655Z,6.57
2018-12-12T20:06:02.616Z,6.70
2018-12-12T20:08:31.802Z,6.70
2018-12-12T20:11:01.220Z,6.90
2018-12-12T20:13:30.732Z,6.70
2018-12-12T20:16:01.669Z,7.27
2018-12-12T20:18:31.274Z,6.03
2018-12-12T20:21:00.826Z,6.67
2018-12-12T20:23:30.248Z,7.23
2018-12-12T20:26:00.351Z,7.37
2018-12-12T20:28:30.383Z,7.77
2018-12-12T20:30:59.368Z,6.77
2018-12-12T20:33:28.513Z,6.70
2018-12-12T20:35:57.394Z,6.33
2018-12-12T20:38:26.601Z,6.50
2018-12-12T20:40:55.781Z,6.60
2018-12-12T20:43:24.771Z,6.87
2018-12-12T20:45:53.657Z,6.57
2018-12-12T20:48:22.810Z,6.07
2018-12-12T20:50:52.770Z,7.10
2018-12-12T20:53:21.881Z,6.87
2018-12-12T20:55:50.952Z,7.83
2018-12-12T20:58:20.117Z,6.87
2018-12-12T21:00:49.141Z,6.60
2018-12-12T21:03:19.318Z,6.70
2018-12-12T21:05:54.287Z,7.03
2018-12-12T21:08:19.295Z,6.70
2018-12-12T21:10:48.158Z,6.63
2018-12-12T21:13:17.184Z,6.90
2018-12-12T21:15:48.327Z,7.10
2018-12-12T21:18:19.324Z,7.53
2018-12-12T21:20:48.480Z,7.43
2018-12-12T21:23:18.875Z,7.37
2018-12-12T21:25:48.252Z,6.30
2018-12-12T21:28:17.285Z,6.67
2018-12-12T21:30:46.279Z,6.97
2018-12-12T21:33:15.455Z,7.20
2018-12-12T21:35:44.452Z,6.50
2018-12-12T21:38:13.547Z,7.40
2018-12-12T21:40:42.899Z,6.90
2018-12-12T21:43:11.916Z,7.50
2018-12-12T21:45:40.883Z,7.20
2018-12-12T21:48:09.520Z,7.50
2018-12-12T21:50:38.570Z,7.47
2018-12-12T21:53:08.806Z,7.17
2018-12-12T21:55:38.072Z,7.07
2018-12-12T21:58:07.003Z,7.67
2018-12-12T22:00:36.115Z,7.73
2018-12-12T22:03:05.097Z,6.80
2018-12-12T22:05:34.221Z,7.90
2018-12-12T22:08:03.305Z,6.87
2018-12-12T22:10:32.389Z,7.33
2018-12-12T22:13:01.497Z,7.63
2018-12-12T22:15:30.580Z,7.20
2018-12-12T22:17:59.769Z,7.03
2018-12-12T22:20:28.800Z,7.47
2018-12-12T22:22:58.838Z,7.00
2018-12-12T22:25:27.936Z,7.03
2018-12-12T22:27:57.997Z,6.90
2018-12-12T22:30:27.085Z,7.10
2018-12-12T22:32:55.852Z,6.97
2018-12-12T22:35:24.868Z,7.53
2018-12-12T22:37:53.950Z,7.33
2018-12-12T22:40:23.384Z,6.60
2018-12-12T22:42:52.465Z,7.50
2018-12-12T22:45:21.658Z,7.17
2018-12-12T22:47:51.349Z,6.83
2018-12-12T22:50:20.439Z,6.63
2018-12-12T22:52:49.230Z,6.77
2018-12-12T22:55:18.658Z,6.43
2018-12-12T22:57:47.442Z,6.70
2018-12-12T23:03:18.183Z,5.80
2018-12-12T23:05:47.174Z,5.90
2018-12-12T23:08:16.273Z,5.60
2018-12-12T23:10:45.328Z,5.50
2018-12-12T23:13:14.079Z,5.83
2018-12-12T23:15:42.961Z,5.93
2018-12-12T23:18:11.936Z,5.53
2018-12-12T23:20:40.940Z,5.73
2018-12-12T23:23:10.937Z,5.93
2018-12-12T23:25:39.600Z,5.57
2018-12-12T23:28:08.592Z,5.20
2018-12-12T23:30:38.164Z,5.43
2018-12-12T23:33:06.865Z,5.03
2018-12-12T23:35:35.863Z,4.77
2018-12-12T23:38:04.875Z,4.70
2018-12-12T23:40:33.794Z,4.57
2018-12-12T23:43:02.905Z,4.73
2018-12-12T23:45:31.963Z,4.63
2018-12-12T23:48:00.958Z,4.57
2018-12-12T23:50:30.073Z,4.77
2018-12-12T23:52:58.978Z,4.70
2018-12-12T23:55:28.883Z,4.40
2018-12-12T23:57:57.901Z,4.73
